Airfield :
LOGIN :

Register | Disclaimer

   EN    FR    IT 

 










Legend :    VFR   Marginal VFR   IFR   Intensive IFR   Very Intensive IFR
Visi :
Ceiling :
>= 8 km
>= 3000ft
5 to 8 km
1000 to 3000 ft
1500m to 5 km
500 to 1000 ft
800 to 1500m
200 to 500 ft
< 800m
< 200 ft
Symbols :   Thunderstorms  Fog  Heavy snow  Heavy precipitations  Wind > 20 kt
SIGMETs :     Misc.  Thunderstorms  Icing  Turbulence  Mountain Waves  Volcanic Ashes






- Airport Elevation : 468 ft
- IATA code : GRO


LEGE - Girona Costa Brava

CURRENT METAR :
  • 260300Z 28003KT 8000 NSC 07/07 Q1017

EXPIRED METARs :
  • 260200Z 28002KT 5000 0150 BCFG FEW001 08/07 Q1018
  • 260130Z 00000KT 5000 0150 R20/1100U BCFG FEW001 08/08 Q1018
  • 260117Z 00000KT 7000 0500 R20/0650U BCFG FEW001 08/08 Q1018
  • 260100Z 03003KT 9999 1000 BCFG FEW001 07/07 Q1018
  • 260040Z 05003KT 9999 1000 BCFG FEW001 08/08 Q1018
  • 260030Z VRB02KT CAVOK 08/08 Q1018
  • 260000Z VRB02KT 9000 FEW008 09/08 Q1018

TAF TAF LEGE
Valid from the 26 at 00:00 until the 27 at 00:00 UTC


252300Z 2600/2624 VRB03KT 9999 SCT020 TX15/2613Z TN05/2606Z
PROB30
TEMPO 2600/2603 4000 SHRA FEW010CB
PROB40
TEMPO 2600/2606 0600 BCFG OVC003
PROB40
TEMPO 2600/2609 3500 BR BKN006
PROB30
TEMPO 2615/2620 4000 SHRA FEW015TCU



MET'MAP, your aeronautical weather chart ! - Copyright ORBIFLY December 2007 - Disclaimer

ORBIFLY MET'MAP TEAM :

Programming & Development : Alexandra Zaïnal
Concept & original design : Baudouin d'Aumeries
Assistance for programming : Marc-Olivier Méhu
Technical & hardware support : Manuel Goepfert

Contact : metmap@orbifly.com




SOURCES & CREDITS :

   NOAA